createdAt,value
2024-03-12T00:00:28.297Z,5.83
2024-03-12T00:01:28.472Z,5.82
2024-03-12T00:02:28.251Z,5.81
2024-03-12T00:03:28.222Z,5.79
2024-03-12T00:04:28.224Z,5.78
2024-03-12T00:05:28.211Z,5.75
2024-03-12T00:06:28.211Z,5.75
2024-03-12T00:07:28.176Z,5.74
2024-03-12T00:08:28.137Z,5.71
2024-03-12T00:09:28.317Z,5.68
2024-03-12T00:10:28.125Z,5.64
2024-03-12T00:11:28.112Z,5.64
2024-03-12T00:12:28.226Z,5.60
2024-03-12T00:13:28.118Z,5.58
2024-03-12T00:14:28.095Z,5.54
2024-03-12T00:15:28.079Z,5.53
2024-03-12T00:16:29.821Z,5.49
2024-03-12T00:17:28.138Z,5.51
2024-03-12T00:18:28.070Z,5.49
2024-03-12T00:19:28.017Z,5.46
2024-03-12T00:20:28.032Z,5.46
2024-03-12T00:21:27.996Z,5.46
2024-03-12T00:22:27.983Z,5.46
2024-03-12T00:23:27.959Z,5.46
2024-03-12T00:24:27.977Z,5.46
2024-03-12T00:25:27.950Z,5.43
2024-03-12T00:26:28.049Z,5.43
2024-03-12T00:27:27.979Z,5.42
2024-03-12T00:28:27.912Z,5.39
2024-03-12T00:29:27.915Z,5.38
2024-03-12T00:30:27.905Z,5.36
2024-03-12T00:31:27.887Z,5.33
2024-03-12T00:32:27.959Z,5.30
2024-03-12T00:33:27.889Z,5.28
2024-03-12T00:34:27.858Z,5.28
2024-03-12T00:35:27.819Z,5.25
2024-03-12T00:36:27.867Z,5.25
2024-03-12T00:37:27.806Z,5.22
2024-03-12T00:38:27.834Z,5.22
2024-03-12T00:39:27.818Z,5.20
2024-03-12T00:40:27.779Z,5.17
2024-03-12T00:41:27.796Z,5.17
2024-03-12T00:42:27.757Z,5.12
2024-03-12T00:43:27.766Z,5.12
2024-03-12T00:44:27.746Z,5.10
2024-03-12T00:45:27.750Z,5.07
2024-03-12T00:46:27.687Z,5.03
2024-03-12T00:47:27.692Z,5.02
2024-03-12T00:48:27.707Z,4.96
2024-03-12T00:49:27.693Z,4.85
2024-03-12T00:50:27.663Z,4.69
2024-03-12T00:51:27.654Z,4.66
2024-03-12T00:52:27.641Z,4.67
2024-03-12T00:53:27.733Z,4.67
2024-03-12T00:54:27.619Z,4.70
2024-03-12T00:55:27.598Z,4.72
2024-03-12T00:56:27.572Z,4.73
2024-03-12T00:57:27.592Z,4.75
2024-03-12T00:58:27.571Z,4.77
2024-03-12T00:59:27.557Z,4.80
2024-03-12T01:00:27.585Z,4.84
2024-03-12T01:01:27.614Z,4.85
2024-03-12T01:02:27.544Z,4.85
2024-03-12T01:03:27.714Z,4.85
2024-03-12T01:04:27.515Z,4.82
2024-03-12T01:05:27.540Z,4.84
2024-03-12T01:06:27.543Z,4.82
2024-03-12T01:07:27.463Z,4.77
2024-03-12T01:08:27.466Z,4.75
2024-03-12T01:09:27.541Z,4.73
2024-03-12T01:10:27.403Z,4.72
2024-03-12T01:11:27.484Z,4.69
2024-03-12T01:12:27.436Z,4.67
2024-03-12T01:13:27.376Z,4.65
2024-03-12T01:14:27.408Z,4.65
2024-03-12T01:15:27.367Z,4.62
2024-03-12T01:16:27.364Z,4.63
2024-03-12T01:17:27.443Z,4.65
2024-03-12T01:18:27.372Z,4.67
2024-03-12T01:19:27.324Z,4.72
2024-03-12T01:20:27.351Z,4.70
2024-03-12T01:21:27.323Z,4.70
2024-03-12T01:22:27.312Z,4.73
2024-03-12T01:23:27.281Z,4.72
2024-03-12T01:24:27.299Z,4.70
2024-03-12T01:25:27.267Z,4.67
2024-03-12T01:26:27.297Z,4.67
2024-03-12T01:27:27.266Z,4.65
2024-03-12T01:28:27.211Z,4.62
2024-03-12T01:29:27.205Z,4.59
2024-03-12T01:30:27.209Z,4.55
2024-03-12T01:31:27.244Z,4.54
2024-03-12T01:32:27.203Z,4.52
2024-03-12T01:33:27.166Z,4.50
2024-03-12T01:34:27.146Z,4.47
2024-03-12T01:35:27.169Z,4.42
2024-03-12T01:36:27.176Z,4.40
2024-03-12T01:37:27.168Z,4.37
2024-03-12T01:38:27.141Z,4.34
2024-03-12T01:39:27.141Z,4.34
2024-03-12T01:40:27.116Z,4.33
2024-03-12T01:41:27.091Z,4.33
2024-03-12T01:42:27.115Z,4.33
2024-03-12T01:43:27.094Z,4.32
2024-03-12T01:44:27.041Z,4.32
2024-03-12T01:45:27.067Z,4.32
2024-03-12T01:46:27.024Z,4.29
2024-03-12T01:47:27.080Z,4.29
2024-03-12T01:48:27.045Z,4.27
2024-03-12T01:49:27.011Z,4.26
2024-03-12T01:50:26.972Z,4.23
2024-03-12T01:51:26.971Z,4.23
2024-03-12T01:52:26.978Z,4.22
2024-03-12T01:53:26.929Z,4.23
2024-03-12T01:54:26.931Z,4.22
2024-03-12T01:55:26.934Z,4.22
2024-03-12T01:56:26.902Z,4.20
2024-03-12T01:57:26.943Z,4.20
2024-03-12T01:58:26.904Z,4.22
2024-03-12T01:59:26.868Z,4.23
2024-03-12T02:00:26.854Z,4.22
2024-03-12T02:01:27.023Z,4.18
2024-03-12T02:02:26.816Z,4.16
2024-03-12T02:03:26.880Z,4.18
2024-03-12T02:04:26.792Z,4.16
2024-03-12T02:05:26.804Z,4.15
2024-03-12T02:06:26.782Z,4.14
2024-03-12T02:07:26.811Z,4.14
2024-03-12T02:08:26.767Z,4.14
2024-03-12T02:09:26.769Z,4.14
2024-03-12T02:10:26.794Z,4.12
2024-03-12T02:11:26.763Z,4.09
2024-03-12T02:12:26.726Z,4.05
2024-03-12T02:13:26.724Z,4.05
2024-03-12T02:14:26.712Z,4.05
2024-03-12T02:15:26.712Z,4.02
2024-03-12T02:16:26.653Z,4.02
2024-03-12T02:17:26.652Z,4.04
2024-03-12T02:18:26.688Z,4.04
2024-03-12T02:19:26.650Z,4.00
2024-03-12T02:20:26.637Z,4.00
2024-03-12T02:21:26.698Z,4.00
2024-03-12T02:22:26.617Z,3.97
2024-03-12T02:23:26.613Z,3.96
2024-03-12T02:24:26.595Z,3.94
2024-03-12T02:25:26.588Z,3.94
2024-03-12T02:26:26.570Z,3.93
2024-03-12T02:27:26.603Z,3.91
2024-03-12T02:28:26.536Z,3.93
2024-03-12T02:29:26.515Z,3.91
2024-03-12T02:30:26.659Z,3.90
2024-03-12T02:31:26.525Z,3.90
2024-03-12T02:32:26.529Z,3.88
2024-03-12T02:33:26.538Z,3.87
2024-03-12T02:34:26.461Z,3.86
2024-03-12T02:35:26.442Z,3.87
2024-03-12T02:36:26.489Z,3.86
2024-03-12T02:37:26.436Z,3.80
2024-03-12T02:38:26.481Z,3.79
2024-03-12T02:39:26.517Z,3.79
2024-03-12T02:40:26.396Z,3.79
2024-03-12T02:41:26.413Z,3.79
2024-03-12T02:42:26.462Z,3.79
2024-03-12T02:43:26.387Z,3.78
2024-03-12T02:44:26.373Z,3.78
2024-03-12T02:45:26.365Z,3.76
2024-03-12T02:46:26.328Z,3.73
2024-03-12T02:47:26.348Z,3.72
2024-03-12T02:48:26.304Z,3.72
2024-03-12T02:49:26.312Z,3.70
2024-03-12T02:50:26.343Z,3.70
2024-03-12T02:51:26.302Z,3.73
2024-03-12T02:52:26.244Z,3.72
2024-03-12T02:53:26.265Z,3.73
2024-03-12T02:54:26.249Z,3.75
2024-03-12T02:55:26.216Z,3.75
2024-03-12T02:56:26.252Z,3.76
2024-03-12T02:57:26.218Z,3.78
2024-03-12T02:58:26.200Z,3.76
2024-03-12T02:59:26.189Z,3.76
2024-03-12T03:00:26.234Z,3.78
2024-03-12T03:01:26.228Z,3.75
2024-03-12T03:02:26.186Z,3.73
2024-03-12T03:03:26.149Z,3.69
2024-03-12T03:04:26.137Z,3.69
2024-03-12T03:05:26.123Z,3.68
2024-03-12T03:06:26.116Z,3.66
2024-03-12T03:07:26.435Z,3.65
2024-03-12T03:08:26.088Z,3.62
2024-03-12T03:09:26.082Z,3.65
2024-03-12T03:10:26.111Z,3.62
2024-03-12T03:11:26.023Z,3.62
2024-03-12T03:12:26.015Z,3.61
2024-03-12T03:13:26.082Z,3.62
2024-03-12T03:14:26.002Z,3.61
2024-03-12T03:15:26.031Z,3.60
2024-03-12T03:16:25.986Z,3.58
2024-03-12T03:17:26.006Z,3.55
2024-03-12T03:18:25.943Z,3.52
2024-03-12T03:19:25.969Z,3.51
2024-03-12T03:20:25.955Z,3.48
2024-03-12T03:21:25.974Z,3.45
2024-03-12T03:22:25.916Z,3.42
2024-03-12T03:23:25.900Z,3.40
2024-03-12T03:24:25.930Z,3.40
2024-03-12T03:25:25.946Z,3.36
2024-03-12T03:26:25.863Z,3.40
2024-03-12T03:27:25.891Z,3.40
2024-03-12T03:28:25.884Z,3.39
2024-03-12T03:29:25.830Z,3.39
2024-03-12T03:30:25.847Z,3.36
2024-03-12T03:31:25.835Z,3.35
2024-03-12T03:32:25.808Z,3.35
2024-03-12T03:33:25.856Z,3.35
2024-03-12T03:34:25.756Z,3.32
2024-03-12T03:35:25.759Z,3.31
2024-03-12T03:36:25.811Z,3.29
2024-03-12T03:37:25.764Z,3.26
2024-03-12T03:38:25.725Z,3.24
2024-03-12T03:39:25.830Z,3.23
2024-03-12T03:40:25.765Z,3.21
2024-03-12T03:41:25.681Z,3.21
2024-03-12T03:42:25.726Z,3.21
2024-03-12T03:43:25.715Z,3.17
2024-03-12T03:44:25.645Z,3.15
2024-03-12T03:45:25.717Z,3.14
2024-03-12T03:46:25.644Z,3.13
2024-03-12T03:47:25.620Z,3.10
2024-03-12T03:48:25.672Z,3.10
2024-03-12T03:49:25.629Z,3.10
2024-03-12T03:50:25.579Z,3.05
2024-03-12T03:51:25.622Z,3.03
2024-03-12T03:52:25.549Z,3.03
2024-03-12T03:53:25.532Z,3.05
2024-03-12T03:54:25.615Z,3.03
2024-03-12T03:55:25.552Z,3.02
2024-03-12T03:56:25.531Z,3.00
2024-03-12T03:57:25.523Z,2.99
2024-03-12T03:58:25.531Z,2.99
2024-03-12T03:59:25.480Z,2.96
2024-03-12T04:00:25.512Z,2.96
2024-03-12T04:01:25.610Z,2.97
2024-03-12T04:02:25.429Z,2.95
2024-03-12T04:03:25.549Z,2.92
2024-03-12T04:04:25.414Z,2.92
2024-03-12T04:05:25.403Z,2.92
2024-03-12T04:06:25.443Z,2.90
2024-03-12T04:07:25.397Z,2.90
2024-03-12T04:08:25.354Z,2.92
2024-03-12T04:09:25.397Z,2.90
2024-03-12T04:10:25.332Z,2.90
2024-03-12T04:11:25.393Z,2.87
2024-03-12T04:12:25.407Z,2.89
2024-03-12T04:13:25.311Z,2.92
2024-03-12T04:14:25.343Z,2.93
2024-03-12T04:15:25.313Z,2.95
2024-03-12T04:16:25.291Z,2.92
2024-03-12T04:17:25.270Z,2.93
2024-03-12T04:18:25.291Z,2.92
2024-03-12T04:19:25.238Z,2.89
2024-03-12T04:20:25.295Z,2.92
2024-03-12T04:21:25.283Z,2.93
2024-03-12T04:22:25.211Z,2.90
2024-03-12T04:23:25.207Z,2.89
2024-03-12T04:24:25.208Z,2.89
2024-03-12T04:25:25.157Z,2.92
2024-03-12T04:26:25.183Z,2.92
2024-03-12T04:27:25.210Z,2.92
2024-03-12T04:28:25.134Z,2.89
2024-03-12T04:29:25.141Z,2.87
2024-03-12T04:30:25.167Z,2.85
2024-03-12T04:31:25.122Z,2.85
2024-03-12T04:32:25.126Z,2.85
2024-03-12T04:33:25.220Z,2.87
2024-03-12T04:34:25.058Z,2.87
2024-03-12T04:35:25.054Z,2.85
2024-03-12T04:36:25.151Z,2.84
2024-03-12T04:37:25.038Z,2.81
2024-03-12T04:38:25.142Z,2.81
2024-03-12T04:39:25.070Z,2.79
2024-03-12T04:40:25.145Z,2.77
2024-03-12T04:41:25.004Z,2.75
2024-03-12T04:42:25.003Z,2.74
2024-03-12T04:43:24.964Z,2.75
2024-03-12T04:44:25.012Z,2.75
2024-03-12T04:45:25.031Z,2.74
2024-03-12T04:46:24.920Z,2.74
2024-03-12T04:47:24.937Z,2.74
2024-03-12T04:48:24.937Z,2.71
2024-03-12T04:49:24.931Z,2.71
2024-03-12T04:50:24.871Z,2.69
2024-03-12T04:51:25.004Z,2.71
2024-03-12T04:52:24.881Z,2.69
2024-03-12T04:53:24.855Z,2.66
2024-03-12T04:54:24.839Z,2.66
2024-03-12T04:55:24.903Z,2.67
2024-03-12T04:56:24.852Z,2.64
2024-03-12T04:57:24.796Z,2.64
2024-03-12T04:58:24.785Z,2.64
2024-03-12T04:59:24.784Z,2.63
2024-03-12T05:00:24.790Z,2.64
2024-03-12T05:01:24.904Z,2.63
2024-03-12T05:02:24.774Z,2.63
2024-03-12T05:03:24.736Z,2.63
2024-03-12T05:04:24.832Z,2.61
2024-03-12T05:05:24.762Z,2.59
2024-03-12T05:06:24.746Z,2.60
2024-03-12T05:07:24.695Z,2.60
2024-03-12T05:08:24.652Z,2.60
2024-03-12T05:09:24.655Z,2.59
2024-03-12T05:10:24.686Z,2.60
2024-03-12T05:11:24.729Z,2.57
2024-03-12T05:12:24.650Z,2.54
2024-03-12T05:13:24.649Z,2.56
2024-03-12T05:14:24.614Z,2.54
2024-03-12T05:15:24.619Z,2.56
2024-03-12T05:16:25.662Z,2.54
2024-03-12T05:17:24.633Z,2.57
2024-03-12T05:18:24.623Z,2.57
2024-03-12T05:19:24.537Z,2.59
2024-03-12T05:20:25.077Z,2.59
2024-03-12T05:21:24.646Z,2.56
2024-03-12T05:22:24.588Z,2.54
2024-03-12T05:23:24.500Z,2.53
2024-03-12T05:24:24.515Z,2.53
2024-03-12T05:25:24.776Z,2.52
2024-03-12T05:26:24.470Z,2.52
2024-03-12T05:27:24.450Z,2.56
2024-03-12T05:28:24.452Z,2.57
2024-03-12T05:29:24.410Z,2.60
2024-03-12T05:30:24.950Z,2.57
2024-03-12T05:31:24.445Z,2.56
2024-03-12T05:32:24.400Z,2.57
2024-03-12T05:33:24.361Z,2.59
2024-03-12T05:34:24.352Z,2.60
2024-03-12T05:35:24.920Z,2.56
2024-03-12T05:36:24.396Z,2.53
2024-03-12T05:37:24.350Z,2.54
2024-03-12T05:38:24.317Z,2.52
2024-03-12T05:39:24.318Z,2.53
2024-03-12T05:40:24.320Z,2.56
2024-03-12T05:41:24.303Z,2.57
2024-03-12T05:42:24.329Z,2.57
2024-03-12T05:43:24.290Z,2.59
2024-03-12T05:44:24.236Z,2.63
2024-03-12T05:45:24.268Z,2.63
2024-03-12T05:46:24.270Z,2.64
2024-03-12T05:47:24.285Z,2.66
2024-03-12T05:48:24.255Z,2.63
2024-03-12T05:49:24.210Z,2.59
2024-03-12T05:50:24.183Z,2.57
2024-03-12T05:51:24.181Z,2.57
2024-03-12T05:52:24.176Z,2.60
2024-03-12T05:53:24.141Z,2.57
2024-03-12T05:54:24.170Z,2.57
2024-03-12T05:55:24.132Z,2.56
2024-03-12T05:56:24.104Z,2.56
2024-03-12T05:57:24.102Z,2.54
2024-03-12T05:58:24.075Z,2.54
2024-03-12T05:59:24.214Z,2.56
2024-03-12T06:00:24.074Z,2.57
2024-03-12T06:01:24.119Z,2.57
2024-03-12T06:02:24.019Z,2.60
2024-03-12T06:03:24.029Z,2.61
2024-03-12T06:04:24.123Z,2.64
2024-03-12T06:05:24.016Z,2.66
2024-03-12T06:06:24.006Z,2.72
2024-03-12T06:07:24.027Z,2.74
2024-03-12T06:08:23.992Z,2.74
2024-03-12T06:09:24.050Z,2.75
2024-03-12T06:10:24.029Z,2.78
2024-03-12T06:11:23.978Z,2.79
2024-03-12T06:12:23.910Z,2.79
2024-03-12T06:13:23.927Z,2.81
2024-03-12T06:14:23.893Z,2.81
2024-03-12T06:15:23.874Z,2.82
2024-03-12T06:16:23.915Z,2.84
2024-03-12T06:17:23.910Z,2.87
2024-03-12T06:18:23.875Z,2.87
2024-03-12T06:19:23.961Z,2.85
2024-03-12T06:20:23.853Z,2.89
2024-03-12T06:21:23.843Z,2.87
2024-03-12T06:22:23.792Z,2.82
2024-03-12T06:23:23.836Z,2.85
2024-03-12T06:24:23.820Z,2.87
2024-03-12T06:25:23.802Z,2.90
2024-03-12T06:26:23.759Z,2.90
2024-03-12T06:27:23.804Z,2.93
2024-03-12T06:28:23.764Z,3.00
2024-03-12T06:29:23.750Z,3.08
2024-03-12T06:30:23.706Z,3.11
2024-03-12T06:31:23.812Z,3.18
2024-03-12T06:32:23.709Z,3.28
2024-03-12T06:33:23.783Z,3.32
2024-03-12T06:34:23.654Z,3.36
2024-03-12T06:35:23.644Z,3.43
2024-03-12T06:36:23.664Z,3.48
2024-03-12T06:37:23.635Z,3.52
2024-03-12T06:38:23.640Z,3.57
2024-03-12T06:39:23.644Z,3.58
2024-03-12T06:40:23.643Z,3.58
2024-03-12T06:41:23.584Z,3.60
2024-03-12T06:42:23.585Z,3.61
2024-03-12T06:43:23.556Z,3.61
2024-03-12T06:44:23.611Z,3.65
2024-03-12T06:45:23.538Z,3.66
2024-03-12T06:46:23.599Z,3.65
2024-03-12T06:47:23.550Z,3.65
2024-03-12T06:48:23.501Z,3.62
2024-03-12T06:49:23.555Z,3.65
2024-03-12T06:50:23.506Z,3.69
2024-03-12T06:51:23.602Z,3.69
2024-03-12T06:52:23.528Z,3.72
2024-03-12T06:53:23.426Z,3.75
2024-03-12T06:54:23.453Z,3.73
2024-03-12T06:55:23.484Z,3.76
2024-03-12T06:56:23.458Z,3.79
2024-03-12T06:57:23.954Z,3.83
2024-03-12T06:58:23.401Z,3.86
2024-03-12T06:59:23.436Z,3.84
2024-03-12T07:00:23.362Z,3.84
2024-03-12T07:01:23.421Z,3.86
2024-03-12T07:02:23.436Z,3.86
2024-03-12T07:03:23.675Z,3.84
2024-03-12T07:04:23.415Z,3.86
2024-03-12T07:05:23.300Z,3.86
2024-03-12T07:06:23.396Z,3.88
2024-03-12T07:07:23.319Z,3.91
2024-03-12T07:08:23.279Z,3.93
2024-03-12T07:09:24.302Z,3.93
2024-03-12T07:10:23.309Z,3.96
2024-03-12T07:11:23.287Z,3.98
2024-03-12T07:12:23.289Z,4.02
2024-03-12T07:13:23.202Z,4.04
2024-03-12T07:14:23.186Z,4.06
2024-03-12T07:15:23.177Z,4.09
2024-03-12T07:16:23.195Z,4.11
2024-03-12T07:17:23.285Z,4.09
2024-03-12T07:18:23.241Z,4.09
2024-03-12T07:19:23.138Z,4.09
2024-03-12T07:20:23.174Z,4.11
2024-03-12T07:21:23.120Z,4.14
2024-03-12T07:22:23.118Z,4.14
2024-03-12T07:23:23.112Z,4.12
2024-03-12T07:24:23.106Z,4.12
2024-03-12T07:25:23.214Z,4.12
2024-03-12T07:26:23.097Z,4.16
2024-03-12T07:27:23.045Z,4.22
2024-03-12T07:28:24.942Z,4.24
2024-03-12T07:29:23.036Z,4.26
2024-03-12T07:30:23.050Z,4.29
2024-03-12T07:31:23.119Z,4.33
2024-03-12T07:32:22.998Z,4.34
2024-03-12T07:33:23.050Z,4.37
2024-03-12T07:34:23.032Z,4.41
2024-03-12T07:35:22.967Z,4.45
2024-03-12T07:36:22.958Z,4.48
2024-03-12T07:37:22.999Z,4.50
2024-03-12T07:38:22.951Z,4.52
2024-03-12T07:39:22.932Z,4.58
2024-03-12T07:40:22.995Z,4.62
2024-03-12T07:41:22.868Z,4.67
2024-03-12T07:42:22.889Z,4.73
2024-03-12T07:43:22.955Z,4.78
2024-03-12T07:44:22.868Z,4.82
2024-03-12T07:45:22.875Z,4.84
2024-03-12T07:46:22.934Z,4.85
2024-03-12T07:47:22.806Z,4.91
2024-03-12T07:48:22.870Z,4.94
2024-03-12T07:49:22.976Z,5.00
2024-03-12T07:50:22.840Z,5.02
2024-03-12T07:51:22.801Z,5.06
2024-03-12T07:52:22.826Z,5.06
2024-03-12T07:53:22.742Z,5.06
2024-03-12T07:54:22.752Z,5.06
2024-03-12T07:55:22.747Z,5.07
2024-03-12T07:56:22.716Z,5.10
2024-03-12T07:57:22.725Z,5.09
2024-03-12T07:58:22.720Z,5.10
2024-03-12T07:59:22.701Z,5.10
2024-03-12T08:00:22.670Z,5.09
2024-03-12T08:01:22.883Z,5.15
2024-03-12T08:02:22.725Z,5.20
2024-03-12T08:03:22.630Z,5.21
2024-03-12T08:04:22.634Z,5.22
2024-03-12T08:05:22.664Z,5.25
2024-03-12T08:06:22.611Z,5.27
2024-03-12T08:07:22.659Z,5.31
2024-03-12T08:08:22.598Z,5.33
2024-03-12T08:09:22.660Z,5.35
2024-03-12T08:10:22.597Z,5.40
2024-03-12T08:11:22.592Z,5.45
2024-03-12T08:12:22.552Z,5.48
2024-03-12T08:13:22.662Z,5.45
2024-03-12T08:14:22.546Z,5.45
2024-03-12T08:15:22.517Z,5.46
2024-03-12T08:16:28.684Z,5.45
2024-03-12T08:17:22.488Z,5.48
2024-03-12T08:18:22.530Z,5.51
2024-03-12T08:19:22.491Z,5.58
2024-03-12T08:20:22.483Z,5.64
2024-03-12T08:21:22.419Z,5.72
2024-03-12T08:22:22.469Z,5.71
2024-03-12T08:23:22.397Z,5.74
2024-03-12T08:24:22.420Z,5.75
2024-03-12T08:25:22.481Z,5.82
2024-03-12T08:26:22.351Z,5.86
2024-03-12T08:27:22.410Z,5.93
2024-03-12T08:28:22.645Z,5.96
2024-03-12T08:29:22.377Z,5.97
2024-03-12T08:30:22.357Z,6.06
2024-03-12T08:31:31.013Z,6.14
2024-03-12T08:32:23.364Z,6.19
2024-03-12T08:33:22.574Z,6.28
2024-03-12T08:34:22.404Z,6.37
2024-03-12T08:35:22.305Z,6.48
2024-03-12T08:36:22.234Z,6.54
2024-03-12T08:37:22.280Z,6.61
2024-03-12T08:38:22.252Z,6.64
2024-03-12T08:39:22.211Z,6.67
2024-03-12T08:40:22.586Z,6.73
2024-03-12T08:41:22.200Z,6.77
2024-03-12T08:42:22.192Z,6.84
2024-03-12T08:43:22.271Z,6.88
2024-03-12T08:44:22.865Z,6.94
2024-03-12T08:45:24.391Z,6.98
2024-03-12T08:46:22.107Z,6.95
2024-03-12T08:47:22.093Z,6.99
2024-03-12T08:48:22.221Z,7.03
2024-03-12T08:49:22.127Z,7.10
2024-03-12T08:50:22.114Z,7.13
2024-03-12T08:51:22.092Z,7.21
2024-03-12T08:52:22.211Z,7.27
2024-03-12T08:53:22.066Z,7.35
2024-03-12T08:54:22.309Z,7.43
2024-03-12T08:55:22.126Z,7.48
2024-03-12T08:56:22.093Z,7.48
2024-03-12T08:57:23.048Z,7.50
2024-03-12T08:58:22.040Z,7.50
2024-03-12T08:59:21.963Z,7.48
2024-03-12T09:00:21.944Z,7.46
2024-03-12T09:01:22.067Z,7.48
2024-03-12T09:02:21.966Z,7.48
2024-03-12T09:03:21.993Z,7.49
2024-03-12T09:04:21.957Z,7.52
2024-03-12T09:05:21.922Z,7.61
2024-03-12T09:06:22.910Z,7.69
2024-03-12T09:07:21.919Z,7.80
2024-03-12T09:08:21.839Z,7.90
2024-03-12T09:09:21.868Z,8.01
2024-03-12T09:10:22.408Z,8.16
2024-03-12T09:11:22.289Z,8.30
2024-03-12T09:12:21.833Z,8.40
2024-03-12T09:13:21.816Z,8.58
2024-03-12T09:14:25.361Z,8.76
2024-03-12T09:15:24.308Z,8.87
2024-03-12T09:16:21.849Z,9.02
2024-03-12T09:17:21.763Z,9.10
2024-03-12T09:18:25.856Z,9.18
2024-03-12T09:19:22.869Z,9.20
2024-03-12T09:20:21.808Z,9.26
2024-03-12T09:21:21.695Z,9.26
2024-03-12T09:22:21.735Z,9.32
2024-03-12T09:23:21.689Z,9.39
2024-03-12T09:24:21.687Z,9.47
2024-03-12T09:25:21.708Z,9.46
2024-03-12T09:26:21.712Z,9.50
2024-03-12T09:27:21.710Z,9.60
2024-03-12T09:28:21.645Z,9.69
2024-03-12T09:29:21.640Z,9.76
2024-03-12T09:30:21.618Z,9.84
2024-03-12T09:31:21.649Z,9.86
2024-03-12T09:32:21.608Z,9.91
2024-03-12T09:33:21.621Z,9.90
2024-03-12T09:34:21.594Z,9.89
2024-03-12T09:35:22.044Z,9.91
2024-03-12T09:36:21.669Z,9.93
2024-03-12T09:37:21.565Z,10.01
2024-03-12T09:38:21.561Z,10.11
2024-03-12T09:39:21.560Z,10.22
2024-03-12T09:40:21.527Z,10.32
2024-03-12T09:41:21.470Z,10.36
2024-03-12T09:42:21.498Z,10.34
2024-03-12T09:43:22.519Z,10.38
2024-03-12T09:44:21.422Z,10.36
2024-03-12T09:45:21.498Z,10.36
2024-03-12T09:46:21.515Z,10.40
2024-03-12T09:47:21.502Z,10.45
2024-03-12T09:48:21.794Z,10.55
2024-03-12T09:49:21.487Z,10.55
2024-03-12T09:50:21.425Z,10.63
2024-03-12T09:51:21.355Z,10.67
2024-03-12T09:52:21.492Z,10.74
2024-03-12T09:53:22.957Z,10.88
2024-03-12T09:54:21.488Z,11.03
2024-03-12T09:55:21.395Z,11.14
2024-03-12T09:56:21.297Z,11.19
2024-03-12T09:57:21.318Z,11.22
2024-03-12T09:58:21.390Z,11.25
2024-03-12T09:59:21.454Z,11.35
2024-03-12T10:00:21.253Z,11.42
2024-03-12T10:01:22.289Z,11.44
2024-03-12T10:02:21.240Z,11.42
2024-03-12T10:03:21.291Z,11.40
2024-03-12T10:04:21.276Z,11.47
2024-03-12T10:05:21.197Z,11.52
2024-03-12T10:06:21.263Z,11.47
2024-03-12T10:07:21.200Z,11.51
2024-03-12T10:08:21.282Z,11.47
2024-03-12T10:09:21.164Z,11.44
2024-03-12T10:10:21.277Z,11.42
2024-03-12T10:11:21.245Z,11.39
2024-03-12T10:12:21.148Z,11.46
2024-03-12T10:13:21.144Z,11.52
2024-03-12T10:14:21.107Z,11.54
2024-03-12T10:15:21.113Z,11.60
2024-03-12T10:16:21.146Z,11.67
2024-03-12T10:17:21.071Z,11.73
2024-03-12T10:18:21.045Z,11.94
2024-03-12T10:19:21.084Z,12.05
2024-03-12T10:20:21.016Z,12.16
2024-03-12T10:21:21.044Z,12.29
2024-03-12T10:22:21.076Z,12.46
2024-03-12T10:23:21.008Z,12.60
2024-03-12T10:24:20.980Z,12.71
2024-03-12T10:25:21.027Z,12.85
2024-03-12T10:26:20.940Z,12.96
2024-03-12T10:27:20.980Z,13.04
2024-03-12T10:28:21.025Z,13.04
2024-03-12T10:29:20.912Z,13.03
2024-03-12T10:30:20.940Z,12.95
2024-03-12T10:31:20.977Z,12.92
2024-03-12T10:32:20.925Z,12.86
2024-03-12T10:33:20.892Z,12.77
2024-03-12T10:34:21.022Z,12.75
2024-03-12T10:35:20.859Z,12.68
2024-03-12T10:36:21.062Z,12.56
2024-03-12T10:37:20.890Z,12.52
2024-03-12T10:38:20.890Z,12.50
2024-03-12T10:39:20.888Z,12.46
2024-03-12T10:40:21.167Z,12.47
2024-03-12T10:41:22.686Z,12.47
2024-03-12T10:42:20.818Z,12.49
2024-03-12T10:43:20.792Z,12.53
2024-03-12T10:44:20.766Z,12.56
2024-03-12T10:45:20.773Z,12.54
2024-03-12T10:46:21.115Z,12.50
2024-03-12T10:47:20.777Z,12.41
2024-03-12T10:48:20.687Z,12.29
2024-03-12T10:49:20.736Z,12.20
2024-03-12T10:50:20.684Z,12.14
2024-03-12T10:51:20.875Z,12.14
2024-03-12T10:52:20.706Z,12.19
2024-03-12T10:53:20.672Z,12.20
2024-03-12T10:54:20.665Z,12.21
2024-03-12T10:55:20.649Z,12.24
2024-03-12T10:56:20.784Z,12.29
2024-03-12T10:57:20.648Z,12.35
2024-03-12T10:58:20.659Z,12.39
2024-03-12T10:59:20.584Z,12.39
2024-03-12T11:00:20.570Z,12.41
2024-03-12T11:01:21.041Z,12.46
2024-03-12T11:02:20.606Z,12.56
2024-03-12T11:03:20.558Z,12.64
2024-03-12T11:04:20.582Z,12.71
2024-03-12T11:05:20.505Z,12.77
2024-03-12T11:06:20.498Z,12.79
2024-03-12T11:07:20.515Z,12.83
2024-03-12T11:08:20.493Z,12.82
2024-03-12T11:09:20.705Z,12.77
2024-03-12T11:10:20.511Z,12.72
2024-03-12T11:11:20.620Z,12.67
2024-03-12T11:12:20.437Z,12.57
2024-03-12T11:13:20.500Z,12.50
2024-03-12T11:14:20.432Z,12.46
2024-03-12T11:15:20.374Z,12.37
2024-03-12T11:16:20.436Z,12.31
2024-03-12T11:17:20.358Z,12.28
2024-03-12T11:18:20.376Z,12.24
2024-03-12T11:19:20.682Z,12.21
2024-03-12T11:20:21.518Z,12.21
2024-03-12T11:21:20.334Z,12.20
2024-03-12T11:22:20.337Z,12.19
2024-03-12T11:23:20.332Z,12.19
2024-03-12T11:24:20.280Z,12.21
2024-03-12T11:25:20.336Z,12.21
2024-03-12T11:26:20.298Z,12.27
2024-03-12T11:27:20.298Z,12.28
2024-03-12T11:28:20.246Z,12.28
2024-03-12T11:29:20.238Z,12.28
2024-03-12T11:30:20.211Z,12.31
2024-03-12T11:31:20.526Z,12.35
2024-03-12T11:32:20.211Z,12.35
2024-03-12T11:33:20.190Z,12.37
2024-03-12T11:34:20.192Z,12.37
2024-03-12T11:35:20.190Z,12.35
2024-03-12T11:36:20.146Z,12.32
2024-03-12T11:37:20.231Z,12.28
2024-03-12T11:38:20.197Z,12.23
2024-03-12T11:39:20.138Z,12.14
2024-03-12T11:40:20.111Z,12.12
2024-03-12T11:41:20.175Z,12.04
2024-03-12T11:42:20.080Z,12.01
2024-03-12T11:43:20.096Z,11.88
2024-03-12T11:44:20.063Z,11.78
2024-03-12T11:45:20.741Z,11.75
2024-03-12T11:46:20.076Z,11.65
2024-03-12T11:47:20.015Z,11.65
2024-03-12T11:48:20.044Z,11.62
2024-03-12T11:49:20.124Z,11.58
2024-03-12T11:50:20.026Z,11.54
2024-03-12T11:51:20.132Z,11.52
2024-03-12T11:52:19.995Z,11.51
2024-03-12T11:53:19.955Z,11.47
2024-03-12T11:54:19.970Z,11.47
2024-03-12T11:55:19.949Z,11.47
2024-03-12T11:56:20.103Z,11.54
2024-03-12T11:57:19.905Z,11.57
2024-03-12T11:58:19.923Z,11.62
2024-03-12T11:59:20.351Z,11.65
2024-03-12T12:00:19.890Z,11.65
2024-03-12T12:01:19.966Z,11.65
2024-03-12T12:02:19.846Z,11.70
2024-03-12T12:03:19.855Z,11.73
2024-03-12T12:04:20.006Z,11.76
2024-03-12T12:05:19.837Z,11.78
2024-03-12T12:06:19.789Z,11.78
2024-03-12T12:07:19.917Z,11.80
2024-03-12T12:08:19.847Z,11.82
2024-03-12T12:09:19.830Z,11.86
2024-03-12T12:10:20.043Z,11.90
2024-03-12T12:11:19.762Z,11.88
2024-03-12T12:12:19.737Z,11.94
2024-03-12T12:13:20.100Z,11.91
2024-03-12T12:14:19.993Z,11.88
2024-03-12T12:15:19.712Z,11.86
2024-03-12T12:16:19.797Z,11.88
2024-03-12T12:17:19.912Z,11.86
2024-03-12T12:18:22.711Z,11.86
2024-03-12T12:20:19.630Z,11.80
2024-03-12T12:21:19.685Z,11.82
2024-03-12T12:22:19.684Z,11.82
2024-03-12T12:23:19.617Z,11.80
2024-03-12T12:24:19.617Z,11.79
2024-03-12T12:25:20.387Z,11.79
2024-03-12T12:26:19.636Z,11.79
2024-03-12T12:27:19.575Z,11.80
2024-03-12T12:28:19.605Z,11.82
2024-03-12T12:29:19.655Z,11.82
2024-03-12T12:30:19.540Z,11.82
2024-03-12T12:31:19.592Z,11.80
2024-03-12T12:32:19.521Z,11.80
2024-03-12T12:33:19.472Z,11.79
2024-03-12T12:34:19.594Z,11.76
2024-03-12T12:35:19.542Z,11.73
2024-03-12T12:36:19.437Z,11.75
2024-03-12T12:37:19.558Z,11.72
2024-03-12T12:38:19.419Z,11.72
2024-03-12T12:39:19.727Z,11.72
2024-03-12T12:40:19.452Z,11.73
2024-03-12T12:41:19.434Z,11.75
2024-03-12T12:42:19.413Z,11.72
2024-03-12T12:43:19.466Z,11.73
2024-03-12T12:44:19.699Z,11.69
2024-03-12T12:45:19.416Z,11.65
2024-03-12T12:46:19.533Z,11.64
2024-03-12T12:47:19.323Z,11.60
2024-03-12T12:48:19.342Z,11.55
2024-03-12T12:49:19.584Z,11.51
2024-03-12T12:50:19.339Z,11.49
2024-03-12T12:51:19.303Z,11.49
2024-03-12T12:52:19.436Z,11.49
2024-03-12T12:53:19.256Z,11.49
2024-03-12T12:54:20.352Z,11.49
2024-03-12T12:55:19.312Z,11.49
2024-03-12T12:56:19.252Z,11.49
2024-03-12T12:57:19.229Z,11.51
2024-03-12T12:58:19.359Z,11.51
2024-03-12T12:59:19.192Z,11.51
2024-03-12T13:00:19.224Z,11.54
2024-03-12T13:01:19.363Z,11.54
2024-03-12T13:02:19.182Z,11.52
2024-03-12T13:03:19.190Z,11.51
2024-03-12T13:04:19.281Z,11.51
2024-03-12T13:05:19.149Z,11.52
2024-03-12T13:06:19.121Z,11.51
2024-03-12T13:07:19.156Z,11.47
2024-03-12T13:08:19.067Z,11.49
2024-03-12T13:09:19.145Z,11.49
2024-03-12T13:10:19.151Z,11.49
2024-03-12T13:11:19.097Z,11.51
2024-03-12T13:12:19.065Z,11.52